CheckWX is a tool to help pilots better visualize weather data.  It is not intended as a substitute for an official pre-flight weather briefing.

05:11:41 UTC

KGFK TAF
Grand Forks International Airport
Grand Forks, North Dakota, USA
KGFK 240358Z 2404/2424 32012KT P6SM BKN025 FM240700 33017G26KT 2SM BLSN BKN015 FM241100 33024G36KT 1/2SM BLSN VV010 FM241400 33029G40KT 1/4SM BLSN VV005

Feb-24@
04:00 UTC

Feb-24 @ 04:00 UTC

Feb-24@
07:00 UTC

Feb-24 @ 07:00 UTC

KGFK 240358Z 2404/2424 32012KT P6SM BKN025
Wind
  • 320° at 12 KTS
Cloud Levels
  • Broken at 2,500' AGL

Feb-24@
07:00 UTC

Feb-24 @ 07:00 UTC

Feb-24@
11:00 UTC

Feb-24 @ 11:00 UTC

FM240700 33017G26KT 2SM BLSN BKN015

From

From Standard forecast or significant change

Wind
  • 330° at 17 KTS
  • {Gusting to 26 KTS
Conditions
Blowing Snow
Cloud Levels
  • Broken at 1,500' AGL

Feb-24@
11:00 UTC

Feb-24 @ 11:00 UTC

Feb-24@
14:00 UTC

Feb-24 @ 14:00 UTC

FM241100 33024G36KT 1/2SM BLSN VV010

From

From Standard forecast or significant change

Wind
  • 330° at 24 KTS
  • {Gusting to 36 KTS
Conditions
Blowing Snow
Cloud Levels
  • Vertical visibility at 1,000' AGL

Feb-24@
14:00 UTC

Feb-24 @ 14:00 UTC

Feb-25@
00:00 UTC

Feb-25 @ 00:00 UTC

FM241400 33029G40KT 1/4SM BLSN VV005

From

From Standard forecast or significant change

Wind
  • 330° at 29 KTS
  • {Gusting to 40 KTS
Conditions
Blowing Snow
Cloud Levels
  • Vertical visibility at 500' AGL